sensor_id;sensor_type;location;lat;lon;timestamp;temperature;humidity
29663;DHT22;16578;53.266;7.920;2023-11-19T00:01:47;11.30;89.00
29663;DHT22;16578;53.266;7.920;2023-11-19T00:04:12;11.40;89.10
29663;DHT22;16578;53.266;7.920;2023-11-19T00:06:39;11.40;89.00
29663;DHT22;16578;53.266;7.920;2023-11-19T00:09:04;11.50;89.00
29663;DHT22;16578;53.266;7.920;2023-11-19T00:11:30;11.50;89.00
29663;DHT22;16578;53.266;7.920;2023-11-19T00:13:55;11.60;89.00
29663;DHT22;16578;53.266;7.920;2023-11-19T00:16:21;11.60;89.00
29663;DHT22;16578;53.266;7.920;2023-11-19T00:18:46;11.60;88.90
29663;DHT22;16578;53.266;7.920;2023-11-19T00:21:12;11.70;89.00
29663;DHT22;16578;53.266;7.920;2023-11-19T00:23:38;11.70;88.90
29663;DHT22;16578;53.266;7.920;2023-11-19T00:26:03;11.80;89.00
29663;DHT22;16578;53.266;7.920;2023-11-19T00:28:32;11.80;89.00
29663;DHT22;16578;53.266;7.920;2023-11-19T00:30:58;11.80;89.00
29663;DHT22;16578;53.266;7.920;2023-11-19T00:33:24;11.90;89.10
29663;DHT22;16578;53.266;7.920;2023-11-19T00:35:50;11.90;89.10
29663;DHT22;16578;53.266;7.920;2023-11-19T00:38:16;11.90;89.00
29663;DHT22;16578;53.266;7.920;2023-11-19T00:40:41;12.00;89.10
29663;DHT22;16578;53.266;7.920;2023-11-19T00:43:07;12.00;89.00
29663;DHT22;16578;53.266;7.920;2023-11-19T00:45:33;12.10;89.10
29663;DHT22;16578;53.266;7.920;2023-11-19T00:47:58;12.10;89.00
29663;DHT22;16578;53.266;7.920;2023-11-19T00:50:27;12.10;88.90
29663;DHT22;16578;53.266;7.920;2023-11-19T00:52:52;12.20;89.00
29663;DHT22;16578;53.266;7.920;2023-11-19T00:55:18;12.20;88.90
29663;DHT22;16578;53.266;7.920;2023-11-19T00:57:43;12.20;88.90
29663;DHT22;16578;53.266;7.920;2023-11-19T01:00:09;12.30;89.00
29663;DHT22;16578;53.266;7.920;2023-11-19T01:02:45;12.30;89.00
29663;DHT22;16578;53.266;7.920;2023-11-19T01:05:11;12.40;89.10
29663;DHT22;16578;53.266;7.920;2023-11-19T01:07:39;12.40;89.00
29663;DHT22;16578;53.266;7.920;2023-11-19T01:10:05;12.40;89.10
29663;DHT22;16578;53.266;7.920;2023-11-19T01:12:31;12.50;89.10
29663;DHT22;16578;53.266;7.920;2023-11-19T01:14:57;12.50;89.10
29663;DHT22;16578;53.266;7.920;2023-11-19T01:17:23;12.50;89.10
29663;DHT22;16578;53.266;7.920;2023-11-19T01:19:48;12.60;89.10
29663;DHT22;16578;53.266;7.920;2023-11-19T01:22:15;12.70;89.10
29663;DHT22;16578;53.266;7.920;2023-11-19T01:24:41;12.70;89.00
29663;DHT22;16578;53.266;7.920;2023-11-19T01:27:06;12.70;89.00
29663;DHT22;16578;53.266;7.920;2023-11-19T01:29:32;12.70;89.00
29663;DHT22;16578;53.266;7.920;2023-11-19T01:31:57;12.80;89.10
29663;DHT22;16578;53.266;7.920;2023-11-19T01:34:23;12.80;89.10
29663;DHT22;16578;53.266;7.920;2023-11-19T01:36:49;12.90;89.10
29663;DHT22;16578;53.266;7.920;2023-11-19T01:39:15;12.90;89.10
29663;DHT22;16578;53.266;7.920;2023-11-19T01:41:41;12.90;89.00
29663;DHT22;16578;53.266;7.920;2023-11-19T01:44:07;12.90;89.10
29663;DHT22;16578;53.266;7.920;2023-11-19T01:46:33;13.00;89.20
29663;DHT22;16578;53.266;7.920;2023-11-19T01:49:00;13.00;89.10
29663;DHT22;16578;53.266;7.920;2023-11-19T01:51:26;13.10;89.10
29663;DHT22;16578;53.266;7.920;2023-11-19T01:53:53;13.10;89.10
29663;DHT22;16578;53.266;7.920;2023-11-19T01:56:18;13.10;89.10
29663;DHT22;16578;53.266;7.920;2023-11-19T01:58:45;13.20;89.10
29663;DHT22;16578;53.266;7.920;2023-11-19T02:01:12;13.20;89.10
29663;DHT22;16578;53.266;7.920;2023-11-19T02:03:38;13.20;89.10
29663;DHT22;16578;53.266;7.920;2023-11-19T02:06:05;13.30;89.20
29663;DHT22;16578;53.266;7.920;2023-11-19T02:08:30;13.30;89.30
29663;DHT22;16578;53.266;7.920;2023-11-19T02:10:56;13.40;89.30
29663;DHT22;16578;53.266;7.920;2023-11-19T02:13:22;13.40;89.30
29663;DHT22;16578;53.266;7.920;2023-11-19T02:15:47;13.50;89.30
29663;DHT22;16578;53.266;7.920;2023-11-19T02:18:24;13.50;89.30
29663;DHT22;16578;53.266;7.920;2023-11-19T02:20:53;13.60;89.30
29663;DHT22;16578;53.266;7.920;2023-11-19T02:23:20;13.60;89.30
29663;DHT22;16578;53.266;7.920;2023-11-19T02:28:25;13.70;89.40
29663;DHT22;16578;53.266;7.920;2023-11-19T02:30:51;13.70;89.40
29663;DHT22;16578;53.266;7.920;2023-11-19T02:33:18;13.80;89.30
29663;DHT22;16578;53.266;7.920;2023-11-19T02:35:44;13.80;89.30
29663;DHT22;16578;53.266;7.920;2023-11-19T02:38:09;13.90;89.40
29663;DHT22;16578;53.266;7.920;2023-11-19T02:40:36;13.90;89.40
29663;DHT22;16578;53.266;7.920;2023-11-19T02:43:01;13.90;89.40
29663;DHT22;16578;53.266;7.920;2023-11-19T02:45:28;14.00;89.40
29663;DHT22;16578;53.266;7.920;2023-11-19T02:47:56;14.00;89.30
29663;DHT22;16578;53.266;7.920;2023-11-19T02:50:22;14.10;89.30
29663;DHT22;16578;53.266;7.920;2023-11-19T02:52:52;14.10;89.30
29663;DHT22;16578;53.266;7.920;2023-11-19T02:55:18;14.10;89.20
29663;DHT22;16578;53.266;7.920;2023-11-19T02:57:45;14.20;89.40
29663;DHT22;16578;53.266;7.920;2023-11-19T03:00:19;14.20;89.30
29663;DHT22;16578;53.266;7.920;2023-11-19T03:02:49;14.30;89.30
29663;DHT22;16578;53.266;7.920;2023-11-19T03:05:24;14.30;89.30
29663;DHT22;16578;53.266;7.920;2023-11-19T03:07:50;14.30;89.30
29663;DHT22;16578;53.266;7.920;2023-11-19T03:10:16;14.40;89.30
29663;DHT22;16578;53.266;7.920;2023-11-19T03:12:42;14.40;89.20
29663;DHT22;16578;53.266;7.920;2023-11-19T03:15:08;14.40;89.20
29663;DHT22;16578;53.266;7.920;2023-11-19T03:17:43;14.40;89.10
29663;DHT22;16578;53.266;7.920;2023-11-19T03:20:11;14.50;89.10
29663;DHT22;16578;53.266;7.920;2023-11-19T03:22:41;14.50;89.10
29663;DHT22;16578;53.266;7.920;2023-11-19T03:25:10;14.50;89.10
29663;DHT22;16578;53.266;7.920;2023-11-19T03:27:39;14.50;89.10
29663;DHT22;16578;53.266;7.920;2023-11-19T03:30:07;14.50;88.90
29663;DHT22;16578;53.266;7.920;2023-11-19T03:32:35;14.60;89.00
29663;DHT22;16578;53.266;7.920;2023-11-19T03:35:01;14.50;89.00
29663;DHT22;16578;53.266;7.920;2023-11-19T03:37:27;14.60;89.00
29663;DHT22;16578;53.266;7.920;2023-11-19T03:39:57;14.60;89.00
29663;DHT22;16578;53.266;7.920;2023-11-19T03:42:28;14.60;89.00
29663;DHT22;16578;53.266;7.920;2023-11-19T03:44:55;14.70;89.00
29663;DHT22;16578;53.266;7.920;2023-11-19T03:47:21;14.70;89.00
29663;DHT22;16578;53.266;7.920;2023-11-19T03:49:50;14.70;89.00
29663;DHT22;16578;53.266;7.920;2023-11-19T03:52:17;14.70;88.90
29663;DHT22;16578;53.266;7.920;2023-11-19T03:54:43;14.70;88.90
29663;DHT22;16578;53.266;7.920;2023-11-19T03:57:09;14.80;88.90
29663;DHT22;16578;53.266;7.920;2023-11-19T03:59:36;14.80;88.90
29663;DHT22;16578;53.266;7.920;2023-11-19T04:02:01;14.80;88.80
29663;DHT22;16578;53.266;7.920;2023-11-19T04:04:28;14.90;88.90
29663;DHT22;16578;53.266;7.920;2023-11-19T04:06:55;14.80;88.80
29663;DHT22;16578;53.266;7.920;2023-11-19T04:09:20;14.90;88.80
29663;DHT22;16578;53.266;7.920;2023-11-19T04:11:46;14.90;88.70
29663;DHT22;16578;53.266;7.920;2023-11-19T04:14:13;14.90;88.70
29663;DHT22;16578;53.266;7.920;2023-11-19T04:16:39;14.90;88.70
29663;DHT22;16578;53.266;7.920;2023-11-19T04:19:04;14.90;88.70
29663;DHT22;16578;53.266;7.920;2023-11-19T04:21:30;14.90;88.70
29663;DHT22;16578;53.266;7.920;2023-11-19T04:23:56;14.90;88.70
29663;DHT22;16578;53.266;7.920;2023-11-19T04:26:21;14.90;88.60
29663;DHT22;16578;53.266;7.920;2023-11-19T04:28:47;14.90;88.60
29663;DHT22;16578;53.266;7.920;2023-11-19T04:31:15;14.90;88.60
29663;DHT22;16578;53.266;7.920;2023-11-19T04:33:41;14.90;88.60
29663;DHT22;16578;53.266;7.920;2023-11-19T04:36:07;14.90;88.50
29663;DHT22;16578;53.266;7.920;2023-11-19T04:38:33;14.90;88.50
29663;DHT22;16578;53.266;7.920;2023-11-19T04:40:58;15.00;88.60
29663;DHT22;16578;53.266;7.920;2023-11-19T04:43:24;15.00;88.50
29663;DHT22;16578;53.266;7.920;2023-11-19T04:45:50;15.00;88.50
29663;DHT22;16578;53.266;7.920;2023-11-19T04:48:15;15.00;88.40
29663;DHT22;16578;53.266;7.920;2023-11-19T04:50:41;15.00;88.40
29663;DHT22;16578;53.266;7.920;2023-11-19T04:53:06;15.00;88.40
29663;DHT22;16578;53.266;7.920;2023-11-19T04:55:32;15.00;88.30
29663;DHT22;16578;53.266;7.920;2023-11-19T04:57:57;15.00;88.30
29663;DHT22;16578;53.266;7.920;2023-11-19T05:00:23;15.00;88.30
29663;DHT22;16578;53.266;7.920;2023-11-19T05:02:48;15.00;88.20
29663;DHT22;16578;53.266;7.920;2023-11-19T05:05:16;14.90;88.10
29663;DHT22;16578;53.266;7.920;2023-11-19T05:07:41;15.00;88.20
29663;DHT22;16578;53.266;7.920;2023-11-19T05:10:07;15.00;88.20
29663;DHT22;16578;53.266;7.920;2023-11-19T05:12:33;14.90;88.20
29663;DHT22;16578;53.266;7.920;2023-11-19T05:14:59;15.00;88.20
29663;DHT22;16578;53.266;7.920;2023-11-19T05:17:25;14.90;88.10
29663;DHT22;16578;53.266;7.920;2023-11-19T05:19:51;15.00;88.20
29663;DHT22;16578;53.266;7.920;2023-11-19T05:22:17;14.90;88.30
29663;DHT22;16578;53.266;7.920;2023-11-19T05:24:42;14.90;88.20
29663;DHT22;16578;53.266;7.920;2023-11-19T05:27:08;15.00;88.20
29663;DHT22;16578;53.266;7.920;2023-11-19T05:29:34;14.90;88.10
29663;DHT22;16578;53.266;7.920;2023-11-19T05:31:59;15.00;88.20
29663;DHT22;16578;53.266;7.920;2023-11-19T05:34:25;14.90;88.10
29663;DHT22;16578;53.266;7.920;2023-11-19T05:36:51;14.90;88.20
29663;DHT22;16578;53.266;7.920;2023-11-19T05:39:17;15.00;88.20
29663;DHT22;16578;53.266;7.920;2023-11-19T05:41:44;14.90;88.10
29663;DHT22;16578;53.266;7.920;2023-11-19T05:44:09;14.90;88.10
29663;DHT22;16578;53.266;7.920;2023-11-19T05:46:35;14.90;88.10
29663;DHT22;16578;53.266;7.920;2023-11-19T05:49:05;15.00;88.20
29663;DHT22;16578;53.266;7.920;2023-11-19T05:51:31;14.90;88.00
29663;DHT22;16578;53.266;7.920;2023-11-19T05:53:56;14.90;88.00
29663;DHT22;16578;53.266;7.920;2023-11-19T05:56:23;15.00;88.00
29663;DHT22;16578;53.266;7.920;2023-11-19T05:58:48;14.90;87.90
29663;DHT22;16578;53.266;7.920;2023-11-19T06:01:15;14.90;87.90
29663;DHT22;16578;53.266;7.920;2023-11-19T06:03:40;14.90;87.90
29663;DHT22;16578;53.266;7.920;2023-11-19T06:06:08;14.90;87.90
29663;DHT22;16578;53.266;7.920;2023-11-19T06:08:34;14.90;87.90
29663;DHT22;16578;53.266;7.920;2023-11-19T06:11:00;14.90;87.90
29663;DHT22;16578;53.266;7.920;2023-11-19T06:13:26;14.90;87.90
29663;DHT22;16578;53.266;7.920;2023-11-19T06:15:52;14.90;87.80
29663;DHT22;16578;53.266;7.920;2023-11-19T06:18:17;14.90;87.90
29663;DHT22;16578;53.266;7.920;2023-11-19T06:20:45;14.90;87.90
29663;DHT22;16578;53.266;7.920;2023-11-19T06:23:10;14.90;87.80
29663;DHT22;16578;53.266;7.920;2023-11-19T06:25:36;14.90;87.90
29663;DHT22;16578;53.266;7.920;2023-11-19T06:28:01;14.90;87.80
29663;DHT22;16578;53.266;7.920;2023-11-19T06:30:27;14.90;87.90
29663;DHT22;16578;53.266;7.920;2023-11-19T06:32:54;14.90;87.80
29663;DHT22;16578;53.266;7.920;2023-11-19T06:35:19;14.90;87.70
29663;DHT22;16578;53.266;7.920;2023-11-19T06:37:45;14.90;87.70
29663;DHT22;16578;53.266;7.920;2023-11-19T06:40:11;14.90;87.70
29663;DHT22;16578;53.266;7.920;2023-11-19T06:42:37;14.90;87.70
29663;DHT22;16578;53.266;7.920;2023-11-19T06:45:04;14.90;87.70
29663;DHT22;16578;53.266;7.920;2023-11-19T06:47:29;14.90;87.60
29663;DHT22;16578;53.266;7.920;2023-11-19T06:49:55;14.90;87.60
29663;DHT22;16578;53.266;7.920;2023-11-19T06:52:21;14.90;87.60
29663;DHT22;16578;53.266;7.920;2023-11-19T06:54:47;14.90;87.50
29663;DHT22;16578;53.266;7.920;2023-11-19T06:57:13;14.90;87.50
29663;DHT22;16578;53.266;7.920;2023-11-19T06:59:38;14.80;87.40
29663;DHT22;16578;53.266;7.920;2023-11-19T07:02:05;14.80;87.40
29663;DHT22;16578;53.266;7.920;2023-11-19T07:04:31;14.80;87.40
29663;DHT22;16578;53.266;7.920;2023-11-19T07:06:58;14.80;87.40
29663;DHT22;16578;53.266;7.920;2023-11-19T07:09:25;14.80;87.40
29663;DHT22;16578;53.266;7.920;2023-11-19T07:11:50;14.80;87.30
29663;DHT22;16578;53.266;7.920;2023-11-19T07:14:18;14.80;87.30
29663;DHT22;16578;53.266;7.920;2023-11-19T07:16:44;14.80;87.30
29663;DHT22;16578;53.266;7.920;2023-11-19T07:19:09;14.80;87.20
29663;DHT22;16578;53.266;7.920;2023-11-19T07:21:35;14.80;87.30
29663;DHT22;16578;53.266;7.920;2023-11-19T07:24:05;14.80;87.30
29663;DHT22;16578;53.266;7.920;2023-11-19T07:26:31;14.80;87.20
29663;DHT22;16578;53.266;7.920;2023-11-19T07:28:56;14.80;87.20
29663;DHT22;16578;53.266;7.920;2023-11-19T07:31:23;14.70;87.10
29663;DHT22;16578;53.266;7.920;2023-11-19T07:33:49;14.80;87.20
29663;DHT22;16578;53.266;7.920;2023-11-19T07:36:15;14.80;87.20
29663;DHT22;16578;53.266;7.920;2023-11-19T07:38:41;14.80;87.20
29663;DHT22;16578;53.266;7.920;2023-11-19T07:41:07;14.80;87.20
29663;DHT22;16578;53.266;7.920;2023-11-19T07:43:35;14.70;87.10
29663;DHT22;16578;53.266;7.920;2023-11-19T07:46:01;14.70;87.10
29663;DHT22;16578;53.266;7.920;2023-11-19T07:48:27;14.70;87.10
29663;DHT22;16578;53.266;7.920;2023-11-19T07:50:53;14.80;87.10
29663;DHT22;16578;53.266;7.920;2023-11-19T07:53:19;14.70;87.00
29663;DHT22;16578;53.266;7.920;2023-11-19T07:55:45;14.80;87.10
29663;DHT22;16578;53.266;7.920;2023-11-19T07:58:11;14.70;87.00
29663;DHT22;16578;53.266;7.920;2023-11-19T08:00:37;14.70;86.90
29663;DHT22;16578;53.266;7.920;2023-11-19T08:03:03;14.80;87.00
29663;DHT22;16578;53.266;7.920;2023-11-19T08:05:30;14.70;87.00
29663;DHT22;16578;53.266;7.920;2023-11-19T08:07:56;14.70;87.00
29663;DHT22;16578;53.266;7.920;2023-11-19T08:10:22;14.70;87.00
29663;DHT22;16578;53.266;7.920;2023-11-19T08:12:50;14.80;87.00
29663;DHT22;16578;53.266;7.920;2023-11-19T08:15:16;14.80;87.00
29663;DHT22;16578;53.266;7.920;2023-11-19T08:17:42;14.80;87.00
29663;DHT22;16578;53.266;7.920;2023-11-19T08:20:10;14.80;87.00
29663;DHT22;16578;53.266;7.920;2023-11-19T08:22:37;14.70;87.10
29663;DHT22;16578;53.266;7.920;2023-11-19T08:25:04;14.80;87.10
29663;DHT22;16578;53.266;7.920;2023-11-19T08:27:30;14.80;87.00
29663;DHT22;16578;53.266;7.920;2023-11-19T08:29:56;14.80;87.00
29663;DHT22;16578;53.266;7.920;2023-11-19T08:32:23;14.80;87.00
29663;DHT22;16578;53.266;7.920;2023-11-19T08:34:49;14.80;87.00
29663;DHT22;16578;53.266;7.920;2023-11-19T08:37:14;14.80;87.00
29663;DHT22;16578;53.266;7.920;2023-11-19T08:39:40;14.80;87.00
29663;DHT22;16578;53.266;7.920;2023-11-19T08:42:07;14.80;87.00
29663;DHT22;16578;53.266;7.920;2023-11-19T08:44:32;14.80;87.10
29663;DHT22;16578;53.266;7.920;2023-11-19T08:46:58;14.80;87.00
29663;DHT22;16578;53.266;7.920;2023-11-19T08:49:24;14.80;87.10
29663;DHT22;16578;53.266;7.920;2023-11-19T08:51:49;14.80;87.20
29663;DHT22;16578;53.266;7.920;2023-11-19T08:54:15;14.80;87.20
29663;DHT22;16578;53.266;7.920;2023-11-19T08:56:41;14.80;87.10
29663;DHT22;16578;53.266;7.920;2023-11-19T08:59:07;14.80;87.10
29663;DHT22;16578;53.266;7.920;2023-11-19T09:01:32;14.80;87.10
29663;DHT22;16578;53.266;7.920;2023-11-19T09:03:58;14.90;87.10
29663;DHT22;16578;53.266;7.920;2023-11-19T09:06:23;14.80;87.10
29663;DHT22;16578;53.266;7.920;2023-11-19T09:08:49;14.90;87.20
29663;DHT22;16578;53.266;7.920;2023-11-19T09:11:14;14.80;87.00
29663;DHT22;16578;53.266;7.920;2023-11-19T09:13:40;14.90;87.10
29663;DHT22;16578;53.266;7.920;2023-11-19T09:16:05;14.90;87.90
29663;DHT22;16578;53.266;7.920;2023-11-19T09:18:31;14.90;87.10
29663;DHT22;16578;53.266;7.920;2023-11-19T09:20:58;14.90;87.10
29663;DHT22;16578;53.266;7.920;2023-11-19T09:23:23;14.90;87.10
29663;DHT22;16578;53.266;7.920;2023-11-19T09:25:50;14.90;87.10
29663;DHT22;16578;53.266;7.920;2023-11-19T09:28:16;14.90;87.00
29663;DHT22;16578;53.266;7.920;2023-11-19T09:30:42;15.00;87.10
29663;DHT22;16578;53.266;7.920;2023-11-19T09:33:07;15.00;87.10
29663;DHT22;16578;53.266;7.920;2023-11-19T09:35:33;15.00;87.10
29663;DHT22;16578;53.266;7.920;2023-11-19T09:37:58;15.00;87.20
29663;DHT22;16578;53.266;7.920;2023-11-19T09:40:24;15.00;87.20
29663;DHT22;16578;53.266;7.920;2023-11-19T09:42:51;15.00;87.10
29663;DHT22;16578;53.266;7.920;2023-11-19T09:45:17;15.00;87.10
29663;DHT22;16578;53.266;7.920;2023-11-19T09:47:47;15.00;87.00
29663;DHT22;16578;53.266;7.920;2023-11-19T09:50:16;15.00;87.10
29663;DHT22;16578;53.266;7.920;2023-11-19T09:52:44;15.00;87.00
29663;DHT22;16578;53.266;7.920;2023-11-19T09:55:09;15.00;87.00
29663;DHT22;16578;53.266;7.920;2023-11-19T09:57:35;15.00;86.90
29663;DHT22;16578;53.266;7.920;2023-11-19T10:00:04;15.00;86.80
29663;DHT22;16578;53.266;7.920;2023-11-19T10:02:34;15.10;86.80
29663;DHT22;16578;53.266;7.920;2023-11-19T10:05:06;15.00;86.70
29663;DHT22;16578;53.266;7.920;2023-11-19T10:07:32;15.10;86.90
29663;DHT22;16578;53.266;7.920;2023-11-19T10:10:02;15.10;86.90
29663;DHT22;16578;53.266;7.920;2023-11-19T10:12:29;15.10;86.80
29663;DHT22;16578;53.266;7.920;2023-11-19T10:14:57;15.10;86.90
29663;DHT22;16578;53.266;7.920;2023-11-19T10:17:33;15.00;86.80
29663;DHT22;16578;53.266;7.920;2023-11-19T10:19:58;15.00;86.90
29663;DHT22;16578;53.266;7.920;2023-11-19T10:22:24;15.00;87.00
29663;DHT22;16578;53.266;7.920;2023-11-19T10:24:52;15.00;87.00
29663;DHT22;16578;53.266;7.920;2023-11-19T10:27:17;15.10;87.00
29663;DHT22;16578;53.266;7.920;2023-11-19T10:29:47;15.00;86.90
29663;DHT22;16578;53.266;7.920;2023-11-19T10:32:13;15.10;86.80
29663;DHT22;16578;53.266;7.920;2023-11-19T10:34:40;15.10;86.90
29663;DHT22;16578;53.266;7.920;2023-11-19T10:37:07;15.10;86.80
29663;DHT22;16578;53.266;7.920;2023-11-19T10:39:51;15.00;86.70
29663;DHT22;16578;53.266;7.920;2023-11-19T10:42:18;15.10;86.70
29663;DHT22;16578;53.266;7.920;2023-11-19T10:44:44;15.00;86.80
29663;DHT22;16578;53.266;7.920;2023-11-19T10:47:10;15.10;86.80
29663;DHT22;16578;53.266;7.920;2023-11-19T10:49:37;15.10;86.90
29663;DHT22;16578;53.266;7.920;2023-11-19T10:52:05;15.10;86.90
29663;DHT22;16578;53.266;7.920;2023-11-19T10:54:34;15.10;86.90
29663;DHT22;16578;53.266;7.920;2023-11-19T10:57:01;15.10;86.90
29663;DHT22;16578;53.266;7.920;2023-11-19T10:59:31;15.10;87.70
29663;DHT22;16578;53.266;7.920;2023-11-19T11:01:57;15.10;87.80
29663;DHT22;16578;53.266;7.920;2023-11-19T11:04:26;15.10;86.90
29663;DHT22;16578;53.266;7.920;2023-11-19T11:06:58;15.10;86.90
29663;DHT22;16578;53.266;7.920;2023-11-19T11:09:26;15.20;86.80
29663;DHT22;16578;53.266;7.920;2023-11-19T11:11:53;15.20;86.80
29663;DHT22;16578;53.266;7.920;2023-11-19T11:14:20;15.10;86.90
29663;DHT22;16578;53.266;7.920;2023-11-19T11:16:48;15.20;86.70
29663;DHT22;16578;53.266;7.920;2023-11-19T11:19:16;15.20;86.50
29663;DHT22;16578;53.266;7.920;2023-11-19T11:21:45;15.20;86.60
29663;DHT22;16578;53.266;7.920;2023-11-19T11:27:29;15.20;86.40
29663;DHT22;16578;53.266;7.920;2023-11-19T11:30:49;15.20;86.60
29663;DHT22;16578;53.266;7.920;2023-11-19T11:32:51;15.20;86.70
29663;DHT22;16578;53.266;7.920;2023-11-19T11:35:36;15.20;86.70
29663;DHT22;16578;53.266;7.920;2023-11-19T11:38:08;15.20;86.60
29663;DHT22;16578;53.266;7.920;2023-11-19T11:40:34;15.30;86.60
29663;DHT22;16578;53.266;7.920;2023-11-19T11:43:00;15.20;86.60
29663;DHT22;16578;53.266;7.920;2023-11-19T11:45:39;15.30;86.70
29663;DHT22;16578;53.266;7.920;2023-11-19T11:48:12;15.30;86.50
29663;DHT22;16578;53.266;7.920;2023-11-19T11:50:56;15.30;86.50
29663;DHT22;16578;53.266;7.920;2023-11-19T11:53:23;15.30;86.30
29663;DHT22;16578;53.266;7.920;2023-11-19T11:58:26;15.30;86.20
29663;DHT22;16578;53.266;7.920;2023-11-19T12:00:52;15.30;86.10
29663;DHT22;16578;53.266;7.920;2023-11-19T12:03:22;15.30;86.20
29663;DHT22;16578;53.266;7.920;2023-11-19T12:05:48;15.30;86.20
29663;DHT22;16578;53.266;7.920;2023-11-19T12:08:15;15.30;86.20
29663;DHT22;16578;53.266;7.920;2023-11-19T12:10:52;15.30;86.10
29663;DHT22;16578;53.266;7.920;2023-11-19T12:13:19;15.30;85.90
29663;DHT22;16578;53.266;7.920;2023-11-19T12:16:07;15.30;86.00
29663;DHT22;16578;53.266;7.920;2023-11-19T12:18:33;15.20;85.80
29663;DHT22;16578;53.266;7.920;2023-11-19T12:20:59;15.20;86.10
29663;DHT22;16578;53.266;7.920;2023-11-19T12:23:30;15.20;86.10
29663;DHT22;16578;53.266;7.920;2023-11-19T12:25:57;15.20;86.10
29663;DHT22;16578;53.266;7.920;2023-11-19T12:28:23;15.20;87.00
29663;DHT22;16578;53.266;7.920;2023-11-19T12:30:52;15.20;86.10
29663;DHT22;16578;53.266;7.920;2023-11-19T12:33:17;15.20;86.10
29663;DHT22;16578;53.266;7.920;2023-11-19T12:35:47;15.20;86.00
29663;DHT22;16578;53.266;7.920;2023-11-19T12:38:24;15.20;86.00
29663;DHT22;16578;53.266;7.920;2023-11-19T12:41:06;15.20;86.00
29663;DHT22;16578;53.266;7.920;2023-11-19T12:43:32;15.20;86.10
29663;DHT22;16578;53.266;7.920;2023-11-19T12:46:00;15.20;86.30
29663;DHT22;16578;53.266;7.920;2023-11-19T12:48:25;15.20;86.30
29663;DHT22;16578;53.266;7.920;2023-11-19T12:50:56;15.20;86.20
29663;DHT22;16578;53.266;7.920;2023-11-19T12:53:23;15.20;86.10
29663;DHT22;16578;53.266;7.920;2023-11-19T12:55:49;15.20;86.10
29663;DHT22;16578;53.266;7.920;2023-11-19T12:58:35;15.20;86.00
29663;DHT22;16578;53.266;7.920;2023-11-19T13:01:06;15.30;85.90
29663;DHT22;16578;53.266;7.920;2023-11-19T13:03:36;15.20;86.00
29663;DHT22;16578;53.266;7.920;2023-11-19T13:06:08;15.20;86.10
29663;DHT22;16578;53.266;7.920;2023-11-19T13:08:44;15.20;86.10
29663;DHT22;16578;53.266;7.920;2023-11-19T13:11:10;15.30;86.10
29663;DHT22;16578;53.266;7.920;2023-11-19T13:13:55;15.20;86.00
29663;DHT22;16578;53.266;7.920;2023-11-19T13:16:21;15.30;85.80
29663;DHT22;16578;53.266;7.920;2023-11-19T13:18:47;15.30;86.00
29663;DHT22;16578;53.266;7.920;2023-11-19T13:21:12;15.30;86.00
29663;DHT22;16578;53.266;7.920;2023-11-19T13:23:38;15.30;86.00
29663;DHT22;16578;53.266;7.920;2023-11-19T13:26:04;15.30;85.90
29663;DHT22;16578;53.266;7.920;2023-11-19T13:28:30;15.30;85.90
29663;DHT22;16578;53.266;7.920;2023-11-19T13:30:56;15.30;85.80
29663;DHT22;16578;53.266;7.920;2023-11-19T13:33:21;15.30;85.80
29663;DHT22;16578;53.266;7.920;2023-11-19T13:35:47;15.30;85.80
29663;DHT22;16578;53.266;7.920;2023-11-19T13:38:12;15.30;85.60
29663;DHT22;16578;53.266;7.920;2023-11-19T13:40:38;15.30;85.40
29663;DHT22;16578;53.266;7.920;2023-11-19T13:43:04;15.30;85.30
29663;DHT22;16578;53.266;7.920;2023-11-19T13:45:30;15.30;85.30
29663;DHT22;16578;53.266;7.920;2023-11-19T13:47:55;15.30;85.30
29663;DHT22;16578;53.266;7.920;2023-11-19T13:50:21;15.30;85.30
29663;DHT22;16578;53.266;7.920;2023-11-19T13:52:48;15.30;85.40
29663;DHT22;16578;53.266;7.920;2023-11-19T13:55:14;15.30;85.40
29663;DHT22;16578;53.266;7.920;2023-11-19T13:57:41;15.30;85.40
29663;DHT22;16578;53.266;7.920;2023-11-19T14:00:11;15.30;86.20
29663;DHT22;16578;53.266;7.920;2023-11-19T14:02:47;15.30;85.50
29663;DHT22;16578;53.266;7.920;2023-11-19T14:05:13;15.30;85.40
29663;DHT22;16578;53.266;7.920;2023-11-19T14:07:40;15.30;85.50
29663;DHT22;16578;53.266;7.920;2023-11-19T14:10:07;15.30;85.50
29663;DHT22;16578;53.266;7.920;2023-11-19T14:12:34;15.30;85.60
29663;DHT22;16578;53.266;7.920;2023-11-19T14:15:01;15.30;85.60
29663;DHT22;16578;53.266;7.920;2023-11-19T14:17:27;15.30;85.60
29663;DHT22;16578;53.266;7.920;2023-11-19T14:19:52;15.40;85.70
29663;DHT22;16578;53.266;7.920;2023-11-19T14:22:18;15.40;85.70
29663;DHT22;16578;53.266;7.920;2023-11-19T14:24:43;15.40;85.70
29663;DHT22;16578;53.266;7.920;2023-11-19T14:27:10;15.40;85.60
29663;DHT22;16578;53.266;7.920;2023-11-19T14:29:36;15.40;85.50
29663;DHT22;16578;53.266;7.920;2023-11-19T14:32:02;15.40;85.50
29663;DHT22;16578;53.266;7.920;2023-11-19T14:34:29;15.40;85.50
29663;DHT22;16578;53.266;7.920;2023-11-19T14:36:54;15.40;85.50
29663;DHT22;16578;53.266;7.920;2023-11-19T14:39:20;15.40;85.50
29663;DHT22;16578;53.266;7.920;2023-11-19T14:41:46;15.40;86.40
29663;DHT22;16578;53.266;7.920;2023-11-19T14:44:11;15.40;85.50
29663;DHT22;16578;53.266;7.920;2023-11-19T14:46:37;15.40;85.40
29663;DHT22;16578;53.266;7.920;2023-11-19T14:49:02;15.40;85.40
29663;DHT22;16578;53.266;7.920;2023-11-19T14:51:29;15.40;85.40
29663;DHT22;16578;53.266;7.920;2023-11-19T14:53:55;15.40;85.30
29663;DHT22;16578;53.266;7.920;2023-11-19T14:56:21;15.40;85.30
29663;DHT22;16578;53.266;7.920;2023-11-19T14:58:47;15.40;85.30
29663;DHT22;16578;53.266;7.920;2023-11-19T15:01:13;15.40;86.10
29663;DHT22;16578;53.266;7.920;2023-11-19T15:03:39;15.40;85.10
29663;DHT22;16578;53.266;7.920;2023-11-19T15:06:06;15.40;85.50
29663;DHT22;16578;53.266;7.920;2023-11-19T15:08:32;15.30;85.00
29663;DHT22;16578;53.266;7.920;2023-11-19T15:10:58;15.30;85.00
29663;DHT22;16578;53.266;7.920;2023-11-19T15:13:24;15.30;85.20
29663;DHT22;16578;53.266;7.920;2023-11-19T15:15:49;15.20;85.00
29663;DHT22;16578;53.266;7.920;2023-11-19T15:18:15;15.30;85.10
29663;DHT22;16578;53.266;7.920;2023-11-19T15:20:42;15.20;85.10
29663;DHT22;16578;53.266;7.920;2023-11-19T15:23:12;15.20;85.20
29663;DHT22;16578;53.266;7.920;2023-11-19T15:25:38;15.20;85.30
29663;DHT22;16578;53.266;7.920;2023-11-19T15:28:04;15.20;85.30
29663;DHT22;16578;53.266;7.920;2023-11-19T15:30:29;15.20;85.40
29663;DHT22;16578;53.266;7.920;2023-11-19T15:32:55;15.20;85.40
29663;DHT22;16578;53.266;7.920;2023-11-19T15:35:20;15.10;85.40
29663;DHT22;16578;53.266;7.920;2023-11-19T15:37:46;15.20;85.60